Map

Track Data

SID SEASON NUMBER BASIN SUBBASIN NAME ISO_TIME NATURE LAT LON WMO_WIND WMO_PRES WMO_AGENCY TRACK_TYPE DIST2LAND LANDFALL IFLAG USA_AGENCY USA_ATCF_ID USA_LAT USA_LON USA_RECORD USA_STATUS USA_WIND USA_PRES USA_SSHS USA_R34_NE USA_R34_SE USA_R34_SW USA_R34_NW USA_R50_NE USA_R50_SE USA_R50_SW USA_R50_NW USA_R64_NE USA_R64_SE USA_R64_SW USA_R64_NW USA_POCI USA_ROCI USA_RMW USA_EYE TOKYO_LAT TOKYO_LON TOKYO_GRADE TOKYO_WIND TOKYO_PRES TOKYO_R50_DIR TOKYO_R50_LONG TOKYO_R50_SHORT TOKYO_R30_DIR TOKYO_R30_LONG TOKYO_R30_SHORT TOKYO_LAND CMA_LAT CMA_LON CMA_CAT CMA_WIND CMA_PRES HKO_LAT HKO_LON HKO_CAT HKO_WIND HKO_PRES NEWDELHI_LAT NEWDELHI_LON NEWDELHI_GRADE NEWDELHI_WIND NEWDELHI_PRES NEWDELHI_CI NEWDELHI_DP NEWDELHI_POCI REUNION_LAT REUNION_LON REUNION_TYPE REUNION_WIND REUNION_PRES REUNION_TNUM REUNION_CI REUNION_RMW REUNION_R34_NE REUNION_R34_SE REUNION_R34_SW REUNION_R34_NW REUNION_R50_NE REUNION_R50_SE REUNION_R50_SW REUNION_R50_NW REUNION_R64_NE REUNION_R64_SE REUNION_R64_SW REUNION_R64_NW BOM_LAT BOM_LON BOM_TYPE BOM_WIND BOM_PRES BOM_TNUM BOM_CI BOM_RMW BOM_R34_NE BOM_R34_SE BOM_R34_SW BOM_R34_NW BOM_R50_NE BOM_R50_SE BOM_R50_SW BOM_R50_NW BOM_R64_NE BOM_R64_SE BOM_R64_SW BOM_R64_NW BOM_ROCI BOM_POCI BOM_EYE BOM_POS_METHOD BOM_PRES_METHOD NADI_LAT NADI_LON NADI_CAT NADI_WIND NADI_PRES WELLINGTON_LAT WELLINGTON_LON WELLINGTON_WIND WELLINGTON_PRES DS824_LAT DS824_LON DS824_STAGE DS824_WIND DS824_PRES TD9636_LAT TD9636_LON TD9636_STAGE TD9636_WIND TD9636_PRES TD9635_LAT TD9635_LON TD9635_WIND TD9635_PRES TD9635_ROCI NEUMANN_LAT NEUMANN_LON NEUMANN_CLASS NEUMANN_WIND NEUMANN_PRES MLC_LAT MLC_LON MLC_CLASS MLC_WIND MLC_PRES USA_GUST BOM_GUST BOM_GUST_PER REUNION_GUST REUNION_GUST_PER USA_SEAHGT USA_SEARAD_NE USA_SEARAD_SE USA_SEARAD_SW USA_SEARAD_NW STORM_SPEED STORM_DIR
1949349S14177 1950 105 SP MM NOT_NAMED 1949-12-15 00:00:00 TS -14.1000 176.600 main 355 355 O________OO___ jtwc_sh SH021950 -14.1000 176.600 -1 -14.1000 176.600 TC -14.1000 176.600 2 1 332
1949349S14177 1950 105 SP MM NOT_NAMED 1949-12-15 03:00:00 TS -14.0505 176.595 main 355 355 P________PP___ SH021950 -14.0500 176.595 -1 -14.0500 176.595 TC -14.0515 176.595 2 1 0
1949349S14177 1950 105 SP MM NOT_NAMED 1949-12-15 06:00:00 TS -14.0008 176.601 main 364 364 O________OP___ jtwc_sh SH021950 -14.0000 176.600 -1 -14.0000 176.600 TC -14.0024 176.602 2 1 18
1949349S14177 1950 105 SP MM NOT_NAMED 1949-12-15 09:00:00 TS -13.9507 176.629 main 364 364 P________PP___ SH021950 -13.9500 176.628 -1 -13.9500 176.628 TC -13.9521 176.633 2 1 43
1949349S14177 1950 105 SP MM NOT_NAMED 1949-12-15 12:00:00 TS -13.9000 176.700 main 368 362 O________OO___ jtwc_sh SH021950 -13.9000 176.700 -1 -13.9000 176.700 TC -13.9000 176.700 2 2 62
1949349S14177 1950 105 SP MM NOT_NAMED 1949-12-15 15:00:00 TS -13.8487 176.831 main 372 362 P________PP___ SH021950 -13.8500 176.843 -1 -13.8500 176.843 TC -13.8460 176.808 2 3 69
1949349S14177 1950 105 SP MM NOT_NAMED 1949-12-15 18:00:00 TS -13.7975 176.981 main 362 357 O________OP___ jtwc_sh SH021950 -13.8000 177.000 -1 -13.8000 177.000 TC -13.7926 176.943 2 3 69
1949349S14177 1950 105 SP MM NOT_NAMED 1949-12-15 21:00:00 TS -13.7476 177.103 main 367 363 P________PP___ SH021950 -13.7500 177.115 -1 -13.7500 177.115 TC -13.7429 177.080 2 2 65
1949349S14177 1950 105 SP MM NOT_NAMED 1949-12-16 00:00:00 TS -13.7000 177.200 main 363 359 O________OO___ jtwc_sh SH021950 -13.7000 177.200 -1 -13.7000 177.200 TC -13.7000 177.200 2 2 58
1949349S14177 1950 105 SP MM NOT_NAMED 1949-12-16 03:00:00 TS -13.6523 177.261 main 359 359 P________PP___ SH021950 -13.6425 177.258 -1 -13.6425 177.258 TC -13.6718 177.267 2 1 51
1949349S14177 1950 105 SP MM NOT_NAMED 1949-12-16 06:00:00 TS -13.6166 177.305 main 370 366 O________OP___ jtwc_sh SH021950 -13.6000 177.300 -1 -13.6000 177.300 TC -13.6499 177.315 2 1 66
1949349S14177 1950 105 SP MM NOT_NAMED 1949-12-16 09:00:00 TS -13.6094 177.357 main 366 366 P________PP___ SH021950 -13.6000 177.357 -1 -13.6000 177.357 TC -13.6281 177.355 2 1 79
1949349S14177 1950 105 SP MM NOT_NAMED 1949-12-16 12:00:00 TS -13.6000 177.400 main 366 366 O________OO___ jtwc_sh SH021950 -13.6000 177.400 -1 -13.6000 177.400 TC -13.6000 177.400 2 1 39
1949349S14177 1950 105 SP MM NOT_NAMED 1949-12-16 15:00:00 TS -13.5560 177.400 main 366 366 P________PP___ SH021950 -13.5575 177.385 -1 -13.5575 177.385 TC -13.5530 177.431 2 1 0
1949349S14177 1950 105 SP MM NOT_NAMED 1949-12-16 18:00:00 TS -13.4999 177.425 main 377 372 O________OP___ jtwc_sh SH021950 -13.5000 177.400 -1 -13.5000 177.400 TC -13.4998 177.475 2 2 47
1949349S14177 1950 105 SP MM NOT_NAMED 1949-12-16 21:00:00 TS -13.4439 177.522 main 382 374 P________PP___ SH021950 -13.4425 177.505 -1 -13.4425 177.505 TC -13.4467 177.556 2 3 69
1949349S14177 1950 105 SP MM NOT_NAMED 1949-12-17 00:00:00 TS -13.4000 177.700 main 374 366 O________OO___ jtwc_sh SH021950 -13.4000 177.700 -1 -13.4000 177.700 TC -13.4000 177.700 2 4 83
1949349S14177 1950 105 SP MM NOT_NAMED 1949-12-17 03:00:00 TS -13.3893 177.963 main 362 349 P________PP___ SH021950 -13.4000 177.977 -1 -13.4000 177.977 TC -13.3680 177.935 2 6 88
1949349S14177 1950 105 SP MM NOT_NAMED 1949-12-17 06:00:00 TS -13.3809 178.278 main 349 341 O________OP___ jtwc_sh SH021950 -13.4000 178.300 -1 -13.4000 178.300 TC -13.3427 178.233 2 6 85
1949349S14177 1950 105 SP MM NOT_NAMED 1949-12-17 09:00:00 TS -13.3403 178.588 main 349 338 P________PP___ SH021950 -13.3500 178.600 -1 -13.3500 178.600 TC -13.3211 178.563 2 6 82
1949349S14177 1950 105 SP MM NOT_NAMED 1949-12-17 12:00:00 TS -13.3000 178.900 main 338 330 O________OO___ jtwc_sh SH021950 -13.3000 178.900 -1 -13.3000 178.900 TC -13.3000 178.900 2 6 81
1949349S14177 1950 105 SP MM NOT_NAMED 1949-12-17 15:00:00 TS -13.2522 179.186 main 330 330 P________PP___ SH021950 -13.3000 179.200 -1 -13.3000 179.200 TC -13.1567 179.157 2 6 81
1949349S14177 1950 105 SP MM NOT_NAMED 1949-12-17 18:00:00 TS -13.2106 179.473 main 337 336 O________OP___ jtwc_sh SH021950 -13.3000 179.500 -1 -13.3000 179.500 TC -13.0317 179.420 2 6 76
1949349S14177 1950 105 SP MM NOT_NAMED 1949-12-17 21:00:00 TS -13.1168 179.750 main 347 336 P________PP___ SH021950 -13.1673 179.763 -1 -13.1673 179.763 TC -13.0159 179.723 2 6 89
1949349S14177 1950 105 SP MM NOT_NAMED 1949-12-18 00:00:00 TS -13.2000 180.100 main 336 300 O________OO___ jtwc_sh SH021950 -13.2000 -179.900 -1 -13.2000 180.100 TC -13.2000 -179.900 2 10 122
1949349S14177 1950 105 SP MM NOT_NAMED 1949-12-18 03:00:00 TS -13.6463 180.613 main 300 248 P________PP___ SH021950 -13.6151 -179.395 -1 -13.6151 -179.395 TC -13.7088 -179.370 2 16 137
1949349S14177 1950 105 SP MM NOT_NAMED 1949-12-18 06:00:00 TS -14.3380 181.210 main 254 233 O________OP___ jtwc_sh SH021950 -14.3000 -178.800 -1 -14.3000 181.200 TC -14.4140 -178.769 2 19 142
1949349S14177 1950 105 SP MM NOT_NAMED 1949-12-18 09:00:00 TS -15.1608 181.834 main 232 232 P________PP___ SH021950 -15.1352 -178.171 -1 -15.1352 -178.171 TC -15.2121 -178.157 2 20 145
1949349S14177 1950 105 SP MM NOT_NAMED 1949-12-18 12:00:00 TS -16.0000 182.400 main 268 268 O________OO___ jtwc_sh SH021950 -16.0000 -177.600 -1 -16.0000 182.400 TC -16.0000 -177.600 2 18 149
1949349S14177 1950 105 SP MM NOT_NAMED 1949-12-18 15:00:00 TS -16.6832 182.797 main 309 308 P________PP___ SH021950 -16.6947 -177.212 -1 -16.6947 -177.212 TC -16.6602 -177.184 2 15 152
1949349S14177 1950 105 SP MM NOT_NAMED 1949-12-18 18:00:00 TS -17.2962 183.123 main 344 344 O________OP___ jtwc_sh SH021950 -17.3000 -176.900 -1 -17.3000 183.100 TC -17.2887 -176.831 2 14 152
1949349S14177 1950 105 SP MM NOT_NAMED 1949-12-18 21:00:00 TS -17.8826 183.463 main 401 401 P________PP___ SH021950 -17.8874 -176.550 -1 -17.8874 -176.550 TC -17.8729 -176.512 2 13 150
1949349S14177 1950 105 SP MM NOT_NAMED 1949-12-19 00:00:00 TS -18.4000 183.800 main 450 450 O________OO___ jtwc_sh SH021950 -18.4000 -176.200 -1 -18.4000 183.800 TC -18.4000 -176.200 2 12 146
1949349S14177 1950 105 SP MM NOT_NAMED 1949-12-19 03:00:00 TS -18.8327 184.151 main 507 507 P________PP___ SH021950 -18.8224 -175.850 -1 -18.8224 -175.850 TC -18.8532 -175.849 2 11 141
1949349S14177 1950 105 SP MM NOT_NAMED 1949-12-19 06:00:00 TS -19.2174 184.500 main 555 555 O________OP___ jtwc_sh SH021950 -19.2000 -175.500 -1 -19.2000 184.500 TC -19.2521 -175.499 2 10 140
1949349S14177 1950 105 SP MM NOT_NAMED 1949-12-19 09:00:00 TS -19.6083 184.850 main 614 614 P________PP___ SH021950 -19.5999 -175.150 -1 -19.5999 -175.150 TC -19.6251 -175.149 2 10 140
1949349S14177 1950 105 SP MM NOT_NAMED 1949-12-19 12:00:00 TS -20.0000 185.200 main 663 663 O________OO___ jtwc_sh SH021950 -20.0000 -174.800 -1 -20.0000 185.200 TC -20.0000 -174.800 2 10 141
1949349S14177 1950 105 SP MM NOT_NAMED 1949-12-19 15:00:00 TS -20.3648 185.511 main 714 714 P________PP___ SH021950 -20.3924 -174.450 -1 -20.3924 -174.450 TC -20.3095 -174.568 2 10 142
1949349S14177 1950 105 SP MM NOT_NAMED 1949-12-19 18:00:00 TS -20.7476 185.827 main 759 759 O________OP___ jtwc_sh SH021950 -20.8000 -174.100 -1 -20.8000 185.900 TC -20.6429 -174.319 2 10 143
1949349S14177 1950 105 SP MM NOT_NAMED 1949-12-19 21:00:00 TS -21.1378 186.126 main 810 810 P________PP___ SH021950 -21.1667 -173.830 -1 -21.1667 -173.830 TC -21.0799 -173.961 2 12 143
1949349S14177 1950 105 SP MM NOT_NAMED 1949-12-20 00:00:00 TS -21.7000 186.600 main 887 887 O________OO___ jtwc_sh SH021950 -21.7000 -173.400 -1 -21.7000 186.600 TC -21.7000 -173.400 2 19 140
1949349S14177 1950 105 SP MM NOT_NAMED 1949-12-20 03:00:00 TS -22.5603 187.395 main 984 984 P________PP___ SH021950 -22.5369 -172.648 -1 -22.5369 -172.648 TC -22.6072 -172.519 2 26 138
1949349S14177 1950 105 SP MM NOT_NAMED 1949-12-20 06:00:00 TS -23.6297 188.460 main 1098 1098 O________OP___ jtwc_sh SH021950 -23.6000 -171.600 -1 -23.6000 188.400 TC -23.6891 -171.419 2 31 136
1949349S14177 1950 105 SP MM NOT_NAMED 1949-12-20 09:00:00 TS -24.8126 189.741 main 1246 1246 P________PP___ SH021950 -24.7935 -170.297 -1 -24.7935 -170.297 TC -24.8508 -170.183 2 34 135
1949349S14177 1950 105 SP MM NOT_NAMED 1949-12-20 12:00:00 TS -26.0000 191.100 main 1407 1407 O________OO___ jtwc_sh SH021950 -26.0000 -168.900 -1 -26.0000 191.100 TC -26.0000 -168.900 2 32 134
1949349S14177 1950 105 SP MM NOT_NAMED 1949-12-20 15:00:00 TS -27.0461 192.330 main 1548 1548 P________PP___ SH021950 -27.0356 -167.682 -1 -27.0356 -167.682 TC -27.0670 -167.646 2 30 133
1949349S14177 1950 105 SP MM NOT_NAMED 1949-12-20 18:00:00 TS -28.0192 193.526 main 1693 1693 O________OP___ jtwc_sh SH021950 -28.0000 -166.500 -1 -28.0000 193.500 TC -28.0576 -166.423 2 29 132
1949349S14177 1950 105 SP MM NOT_NAMED 1949-12-20 21:00:00 TS -28.9668 194.747 main 1776 1776 P________PP___ SH021950 -28.9529 -165.273 -1 -28.9529 -165.273 TC -28.9948 -165.213 2 29 131
1949349S14177 1950 105 SP MM NOT_NAMED 1949-12-21 00:00:00 TS -29.9000 196.000 main 1820 O________OO___ jtwc_sh SH021950 -29.9000 -164.000 -1 -29.9000 196.000 TC -29.9000 -164.000 2 29 131

Digital Typhoon Data and Search

About IBTrACS Database

This database is a web-friendly format of International Best Track Archive for Climate Stewardship (IBTrACS), a global best track data archive curated by NOAA dating back to 1842.

Updated: 2021-11-26